createdAt,value
2023-04-11T00:00:53.937Z,2.40
2023-04-11T00:01:54.047Z,2.80
2023-04-11T00:02:54.074Z,2.70
2023-04-11T00:03:54.194Z,2.10
2023-04-11T00:04:54.018Z,2.00
2023-04-11T00:05:53.900Z,2.10
2023-04-11T00:06:53.959Z,2.30
2023-04-11T00:07:53.955Z,2.30
2023-04-11T00:08:54.392Z,1.80
2023-04-11T00:09:53.892Z,2.30
2023-04-11T00:10:53.882Z,2.10
2023-04-11T00:11:53.883Z,2.10
2023-04-11T00:12:53.911Z,2.30
2023-04-11T00:13:53.916Z,3.00
2023-04-11T00:14:53.870Z,2.10
2023-04-11T00:15:53.858Z,4.40
2023-04-11T00:16:53.983Z,3.10
2023-04-11T00:17:53.941Z,2.20
2023-04-11T00:18:54.047Z,2.30
2023-04-11T00:19:53.878Z,2.00
2023-04-11T00:20:53.841Z,2.30
2023-04-11T00:21:54.773Z,2.20
2023-04-11T00:22:53.827Z,2.20
2023-04-11T00:23:53.814Z,2.50
2023-04-11T00:24:53.839Z,4.40
2023-04-11T00:25:53.815Z,2.20
2023-04-11T00:26:53.794Z,2.20
2023-04-11T00:27:53.788Z,2.40
2023-04-11T00:28:54.165Z,2.00
2023-04-11T00:29:53.780Z,2.20
2023-04-11T00:30:53.821Z,2.10
2023-04-11T00:31:53.799Z,2.50
2023-04-11T00:32:53.946Z,2.10
2023-04-11T00:33:53.748Z,1.70
2023-04-11T00:34:53.753Z,1.70
2023-04-11T00:35:53.864Z,3.10
2023-04-11T00:36:53.811Z,1.80
2023-04-11T00:37:53.740Z,2.20
2023-04-11T00:38:53.964Z,1.50
2023-04-11T00:39:53.726Z,1.90
2023-04-11T00:40:53.766Z,1.80
2023-04-11T00:41:53.747Z,1.30
2023-04-11T00:42:53.704Z,1.60
2023-04-11T00:43:53.722Z,1.80
2023-04-11T00:44:53.792Z,3.00
2023-04-11T00:45:53.741Z,1.70
2023-04-11T00:46:53.740Z,2.80
2023-04-11T00:47:53.703Z,2.00
2023-04-11T00:48:53.893Z,2.40
2023-04-11T00:49:53.666Z,1.40
2023-04-11T00:50:53.658Z,1.60
2023-04-11T00:51:53.691Z,1.50
2023-04-11T00:52:53.661Z,3.00
2023-04-11T00:53:53.704Z,1.20
2023-04-11T00:54:53.635Z,1.40
2023-04-11T00:55:53.640Z,1.20
2023-04-11T00:56:53.669Z,1.30
2023-04-11T00:57:53.610Z,1.50
2023-04-11T00:58:53.836Z,1.90
2023-04-11T00:59:53.614Z,0.90
2023-04-11T01:00:53.637Z,1.00
2023-04-11T01:01:53.821Z,1.10
2023-04-11T01:02:53.816Z,0.90
2023-04-11T01:03:53.766Z,0.90
2023-04-11T01:04:53.607Z,0.90
2023-04-11T01:05:53.578Z,1.20
2023-04-11T01:06:53.575Z,2.20
2023-04-11T01:07:53.572Z,1.40
2023-04-11T01:08:53.908Z,1.40
2023-04-11T01:09:53.549Z,1.30
2023-04-11T01:10:53.570Z,1.30
2023-04-11T01:11:53.578Z,1.10
2023-04-11T01:12:53.545Z,1.20
2023-04-11T01:13:53.579Z,1.80
2023-04-11T01:14:53.537Z,1.50
2023-04-11T01:15:53.548Z,1.10
2023-04-11T01:16:53.614Z,1.50
2023-04-11T01:17:53.573Z,2.50
2023-04-11T01:18:53.848Z,1.30
2023-04-11T01:19:53.518Z,1.50
2023-04-11T01:20:53.548Z,1.40
2023-04-11T01:21:53.513Z,1.50
2023-04-11T01:22:53.504Z,1.50
2023-04-11T01:23:53.549Z,1.60
2023-04-11T01:24:53.489Z,1.50
2023-04-11T01:25:53.495Z,1.70
2023-04-11T01:26:53.480Z,1.60
2023-04-11T01:27:53.469Z,1.50
2023-04-11T01:28:53.639Z,1.50
2023-04-11T01:29:53.505Z,1.50
2023-04-11T01:30:53.554Z,2.40
2023-04-11T01:31:53.453Z,1.30
2023-04-11T01:32:53.504Z,1.40
2023-04-11T01:33:53.464Z,1.50
2023-04-11T01:34:53.477Z,1.50
2023-04-11T01:35:53.481Z,1.20
2023-04-11T01:36:53.487Z,4.40
2023-04-11T01:37:53.425Z,1.20
2023-04-11T01:38:53.471Z,1.40
2023-04-11T01:39:53.434Z,1.20
2023-04-11T01:40:53.455Z,1.40
2023-04-11T01:41:53.404Z,1.60
2023-04-11T01:42:53.392Z,1.80
2023-04-11T01:43:53.407Z,1.90
2023-04-11T01:44:53.396Z,2.20
2023-04-11T01:45:53.407Z,1.70
2023-04-11T01:46:53.397Z,1.80
2023-04-11T01:47:53.477Z,2.00
2023-04-11T01:48:53.484Z,1.60
2023-04-11T01:49:53.385Z,2.50
2023-04-11T01:50:53.423Z,1.60
2023-04-11T01:51:53.355Z,1.50
2023-04-11T01:52:53.339Z,3.40
2023-04-11T01:53:53.354Z,2.40
2023-04-11T01:54:53.355Z,1.90
2023-04-11T01:55:53.387Z,1.80
2023-04-11T01:56:53.354Z,2.00
2023-04-11T01:57:53.343Z,2.90
2023-04-11T01:58:53.517Z,1.90
2023-04-11T01:59:53.324Z,1.80
2023-04-11T02:00:53.330Z,2.00
2023-04-11T02:01:53.449Z,2.30
2023-04-11T02:02:53.479Z,3.40
2023-04-11T02:03:53.417Z,1.90
2023-04-11T02:04:53.286Z,4.70
2023-04-11T02:05:53.275Z,3.10
2023-04-11T02:06:53.271Z,1.80
2023-04-11T02:07:53.499Z,1.70
2023-04-11T02:08:53.357Z,1.90
2023-04-11T02:09:53.270Z,6.80
2023-04-11T02:10:53.270Z,2.10
2023-04-11T02:11:53.253Z,3.10
2023-04-11T02:12:53.244Z,1.80
2023-04-11T02:13:53.272Z,5.80
2023-04-11T02:14:53.276Z,1.80
2023-04-11T02:15:53.338Z,1.40
2023-04-11T02:16:53.232Z,1.60
2023-04-11T02:17:53.251Z,2.70
2023-04-11T02:18:53.424Z,1.70
2023-04-11T02:19:53.274Z,1.50
2023-04-11T02:20:53.320Z,1.90
2023-04-11T02:21:53.217Z,2.20
2023-04-11T02:22:53.200Z,1.90
2023-04-11T02:23:53.246Z,1.80
2023-04-11T02:24:53.187Z,5.70
2023-04-11T02:25:53.180Z,3.00
2023-04-11T02:26:53.189Z,2.00
2023-04-11T02:27:53.181Z,4.00
2023-04-11T02:28:53.293Z,1.10
2023-04-11T02:29:53.190Z,1.20
2023-04-11T02:30:53.252Z,1.30
2023-04-11T02:31:53.263Z,2.50
2023-04-11T02:32:53.263Z,1.10
2023-04-11T02:33:53.140Z,1.00
2023-04-11T02:34:53.161Z,1.10
2023-04-11T02:35:53.211Z,1.90
2023-04-11T02:36:53.127Z,2.10
2023-04-11T02:37:53.115Z,1.00
2023-04-11T02:38:53.166Z,0.90
2023-04-11T02:39:53.168Z,1.00
2023-04-11T02:40:53.138Z,1.30
2023-04-11T02:41:53.111Z,1.30
2023-04-11T02:42:53.093Z,0.90
2023-04-11T02:43:53.088Z,0.90
2023-04-11T02:44:53.082Z,0.80
2023-04-11T02:46:02.015Z,1.00
2023-04-11T02:46:54.172Z,0.80
2023-04-11T02:47:53.136Z,2.30
2023-04-11T02:48:53.177Z,1.40
2023-04-11T02:49:53.074Z,0.90
2023-04-11T02:50:53.096Z,1.20
2023-04-11T02:51:53.081Z,1.40
2023-04-11T02:52:53.042Z,1.90
2023-04-11T02:53:53.036Z,1.00
2023-04-11T02:54:53.068Z,1.50
2023-04-11T02:55:53.056Z,0.70
2023-04-11T02:56:53.086Z,0.90
2023-04-11T02:57:53.039Z,0.90
2023-04-11T02:58:53.030Z,2.10
2023-04-11T02:59:53.021Z,0.90
2023-04-11T03:00:53.012Z,0.80
2023-04-11T03:01:53.070Z,3.00
2023-04-11T03:02:53.177Z,1.50
2023-04-11T03:03:53.157Z,1.10
2023-04-11T03:04:52.975Z,1.20
2023-04-11T03:05:52.985Z,1.30
2023-04-11T03:06:52.959Z,0.90
2023-04-11T03:07:53.006Z,5.30
2023-04-11T03:08:53.078Z,1.10
2023-04-11T03:09:52.982Z,3.60
2023-04-11T03:10:52.966Z,1.00
2023-04-11T03:11:52.950Z,1.50
2023-04-11T03:12:52.990Z,0.80
2023-04-11T03:13:52.921Z,1.60
2023-04-11T03:14:52.938Z,1.00
2023-04-11T03:15:52.954Z,1.90
2023-04-11T03:16:52.929Z,1.90
2023-04-11T03:17:52.959Z,1.40
2023-04-11T03:18:52.978Z,1.40
2023-04-11T03:19:52.917Z,1.50
2023-04-11T03:20:52.903Z,1.90
2023-04-11T03:21:52.904Z,1.30
2023-04-11T03:22:52.925Z,1.40
2023-04-11T03:23:52.942Z,2.70
2023-04-11T03:24:52.930Z,1.20
2023-04-11T03:25:52.870Z,1.40
2023-04-11T03:26:52.878Z,3.10
2023-04-11T03:27:52.890Z,1.70
2023-04-11T03:28:53.016Z,2.40
2023-04-11T03:29:52.937Z,1.40
2023-04-11T03:30:52.865Z,1.40
2023-04-11T03:31:53.660Z,3.60
2023-04-11T03:32:52.970Z,1.80
2023-04-11T03:33:52.945Z,1.70
2023-04-11T03:34:52.880Z,1.60
2023-04-11T03:35:52.862Z,1.60
2023-04-11T03:36:52.820Z,2.50
2023-04-11T03:37:52.821Z,1.80
2023-04-11T03:38:52.929Z,1.10
2023-04-11T03:39:52.849Z,1.50
2023-04-11T03:40:52.795Z,1.00
2023-04-11T03:41:52.807Z,1.20
2023-04-11T03:42:52.802Z,3.30
2023-04-11T03:43:52.777Z,1.20
2023-04-11T03:44:52.844Z,1.70
2023-04-11T03:45:52.784Z,2.10
2023-04-11T03:46:52.852Z,1.60
2023-04-11T03:47:52.806Z,1.50
2023-04-11T03:48:52.758Z,3.40
2023-04-11T03:49:52.809Z,1.40
2023-04-11T03:50:52.741Z,2.70
2023-04-11T03:51:52.764Z,1.50
2023-04-11T03:52:52.766Z,4.30
2023-04-11T03:53:52.799Z,1.60
2023-04-11T03:54:52.768Z,1.00
2023-04-11T03:55:52.776Z,4.20
2023-04-11T03:56:52.775Z,1.90
2023-04-11T03:57:52.728Z,5.30
2023-04-11T03:58:52.906Z,7.40
2023-04-11T03:59:52.734Z,1.90
2023-04-11T04:00:52.716Z,4.10
2023-04-11T04:01:52.725Z,3.20
2023-04-11T04:02:52.889Z,1.40
2023-04-11T04:03:52.956Z,3.60
2023-04-11T04:04:52.870Z,5.20
2023-04-11T04:05:52.680Z,2.70
2023-04-11T04:06:52.734Z,2.30
2023-04-11T04:07:54.074Z,2.30
2023-04-11T04:08:52.675Z,2.80
2023-04-11T04:09:52.685Z,3.90
2023-04-11T04:10:52.734Z,3.00
2023-04-11T04:11:52.646Z,2.50
2023-04-11T04:12:52.685Z,4.40
2023-04-11T04:13:52.708Z,4.40
2023-04-11T04:14:52.642Z,4.30
2023-04-11T04:15:52.617Z,5.00
2023-04-11T04:16:52.939Z,4.10
2023-04-11T04:17:52.666Z,2.90
2023-04-11T04:18:52.602Z,3.10
2023-04-11T04:19:52.630Z,3.60
2023-04-11T04:20:52.637Z,1.90
2023-04-11T04:21:52.589Z,1.70
2023-04-11T04:22:52.640Z,3.90
2023-04-11T04:23:52.574Z,4.20
2023-04-11T04:24:52.578Z,3.50
2023-04-11T04:25:52.604Z,1.90
2023-04-11T04:26:52.572Z,5.50
2023-04-11T04:27:52.624Z,6.50
2023-04-11T04:28:52.554Z,4.80
2023-04-11T04:29:55.813Z,5.30
2023-04-11T04:30:53.561Z,3.70
2023-04-11T04:31:52.600Z,7.30
2023-04-11T04:32:52.605Z,5.50
2023-04-11T04:33:52.524Z,3.40
2023-04-11T04:34:52.569Z,5.30
2023-04-11T04:35:52.592Z,2.10
2023-04-11T04:36:52.510Z,4.80
2023-04-11T04:37:52.511Z,4.20
2023-04-11T04:38:52.518Z,3.70
2023-04-11T04:39:52.660Z,3.40
2023-04-11T04:40:52.514Z,3.30
2023-04-11T04:41:52.478Z,5.40
2023-04-11T04:42:52.485Z,3.90
2023-04-11T04:43:52.473Z,1.70
2023-04-11T04:44:52.492Z,4.80
2023-04-11T04:45:52.469Z,2.00
2023-04-11T04:46:52.489Z,6.50
2023-04-11T04:47:52.485Z,2.50
2023-04-11T04:48:52.451Z,3.90
2023-04-11T04:49:52.492Z,1.50
2023-04-11T04:50:52.452Z,2.10
2023-04-11T04:51:52.453Z,4.20
2023-04-11T04:52:52.444Z,4.80
2023-04-11T04:53:52.449Z,2.00
2023-04-11T04:54:52.456Z,2.70
2023-04-11T04:55:52.425Z,4.10
2023-04-11T04:56:52.418Z,2.00
2023-04-11T04:57:52.405Z,1.50
2023-04-11T04:58:52.414Z,4.30
2023-04-11T04:59:52.446Z,1.50
2023-04-11T05:00:52.481Z,4.50
2023-04-11T05:01:52.470Z,2.10
2023-04-11T05:02:52.563Z,3.20
2023-04-11T05:03:52.451Z,4.80
2023-04-11T05:04:52.385Z,4.40
2023-04-11T05:05:52.411Z,3.70
2023-04-11T05:06:52.411Z,6.10
2023-04-11T05:07:52.362Z,3.40
2023-04-11T05:08:52.358Z,3.80
2023-04-11T05:09:52.338Z,2.50
2023-04-11T05:10:53.373Z,4.60
2023-04-11T05:11:52.399Z,2.90
2023-04-11T05:12:52.323Z,2.40
2023-04-11T05:13:52.343Z,5.50
2023-04-11T05:14:52.330Z,6.00
2023-04-11T05:15:52.315Z,3.00
2023-04-11T05:16:52.386Z,5.80
2023-04-11T05:17:52.347Z,7.60
2023-04-11T05:18:52.299Z,3.10
2023-04-11T05:19:52.306Z,5.30
2023-04-11T05:20:52.321Z,4.10
2023-04-11T05:21:52.368Z,5.50
2023-04-11T05:22:52.287Z,3.90
2023-04-11T05:23:52.335Z,6.70
2023-04-11T05:24:52.300Z,5.50
2023-04-11T05:25:52.288Z,6.30
2023-04-11T05:26:52.315Z,3.90
2023-04-11T05:27:52.312Z,3.30
2023-04-11T05:28:52.289Z,4.70
2023-04-11T05:29:52.249Z,5.90
2023-04-11T05:30:52.301Z,6.60
2023-04-11T05:31:52.255Z,7.20
2023-04-11T05:32:52.337Z,6.00
2023-04-11T05:33:52.231Z,5.60
2023-04-11T05:34:52.226Z,5.60
2023-04-11T05:35:52.303Z,5.20
2023-04-11T05:36:52.218Z,9.70
2023-04-11T05:37:52.269Z,5.90
2023-04-11T05:38:52.254Z,5.70
2023-04-11T05:39:52.224Z,3.80
2023-04-11T05:40:52.234Z,5.50
2023-04-11T05:41:52.183Z,7.00
2023-04-11T05:42:52.219Z,5.70
2023-04-11T05:43:52.201Z,5.40
2023-04-11T05:44:52.164Z,6.60
2023-04-11T05:45:52.247Z,8.20
2023-04-11T05:46:52.168Z,6.90
2023-04-11T05:47:53.280Z,4.30
2023-04-11T05:48:52.171Z,7.70
2023-04-11T05:49:52.189Z,8.80
2023-04-11T05:50:52.166Z,10.50
2023-04-11T05:51:52.192Z,7.90
2023-04-11T05:52:52.144Z,13.60
2023-04-11T05:53:52.139Z,6.90
2023-04-11T05:54:52.166Z,7.70
2023-04-11T05:55:52.140Z,8.40
2023-04-11T05:56:52.164Z,6.20
2023-04-11T05:57:52.106Z,7.70
2023-04-11T05:58:52.108Z,7.20
2023-04-11T05:59:52.089Z,8.90
2023-04-11T06:00:52.099Z,7.00
2023-04-11T06:01:52.190Z,4.30
2023-04-11T06:02:52.216Z,7.50
2023-04-11T06:03:52.220Z,7.10
2023-04-11T06:04:52.129Z,5.40
2023-04-11T06:05:52.061Z,5.90
2023-04-11T06:06:52.117Z,7.80
2023-04-11T06:07:52.030Z,8.00
2023-04-11T06:08:52.091Z,5.70
2023-04-11T06:09:52.036Z,6.40
2023-04-11T06:10:52.027Z,5.40
2023-04-11T06:11:52.058Z,11.30
2023-04-11T06:12:51.997Z,7.50
2023-04-11T06:13:51.989Z,5.10
2023-04-11T06:14:52.100Z,8.10
2023-04-11T06:15:52.044Z,6.90
2023-04-11T06:16:51.967Z,4.80
2023-04-11T06:17:51.988Z,4.70
2023-04-11T06:18:51.974Z,5.90
2023-04-11T06:19:51.995Z,8.70
2023-04-11T06:20:52.000Z,12.20
2023-04-11T06:21:51.937Z,9.10
2023-04-11T06:22:51.941Z,4.80
2023-04-11T06:23:52.146Z,6.70
2023-04-11T06:24:52.030Z,4.20
2023-04-11T06:25:51.976Z,9.50
2023-04-11T06:26:51.909Z,8.70
2023-04-11T06:27:51.892Z,6.20
2023-04-11T06:28:51.934Z,6.80
2023-04-11T06:29:51.948Z,6.50
2023-04-11T06:30:52.068Z,8.80
2023-04-11T06:31:51.912Z,6.40
2023-04-11T06:32:51.898Z,7.80
2023-04-11T06:33:51.883Z,5.20
2023-04-11T06:34:51.891Z,3.90
2023-04-11T06:35:51.915Z,5.80
2023-04-11T06:36:51.955Z,9.50
2023-04-11T06:37:51.851Z,9.20
2023-04-11T06:38:51.861Z,4.90
2023-04-11T06:39:51.828Z,6.90
2023-04-11T06:40:51.845Z,4.60
2023-04-11T06:41:51.846Z,8.90
2023-04-11T06:42:51.803Z,9.00
2023-04-11T06:43:51.783Z,11.30
2023-04-11T06:44:51.860Z,10.80
2023-04-11T06:45:51.769Z,20.40
2023-04-11T06:46:51.888Z,9.00
2023-04-11T06:47:51.826Z,11.50
2023-04-11T06:48:51.743Z,7.50
2023-04-11T06:49:51.733Z,12.00
2023-04-11T06:50:51.726Z,14.20
2023-04-11T06:51:51.819Z,11.00
2023-04-11T06:52:51.771Z,14.10
2023-04-11T06:53:51.715Z,17.10
2023-04-11T06:54:51.701Z,13.10
2023-04-11T06:55:51.793Z,9.40
2023-04-11T06:56:51.739Z,12.90
2023-04-11T06:57:51.724Z,15.20
2023-04-11T06:58:51.780Z,9.80
2023-04-11T06:59:51.669Z,8.90
2023-04-11T07:00:51.655Z,16.70
2023-04-11T07:01:51.713Z,24.00
2023-04-11T07:02:51.887Z,8.80
2023-04-11T07:03:51.783Z,11.00
2023-04-11T07:04:51.684Z,16.00
2023-04-11T07:05:51.642Z,21.00
2023-04-11T07:06:51.650Z,12.40
2023-04-11T07:07:51.666Z,13.80
2023-04-11T07:08:51.749Z,14.50
2023-04-11T07:09:51.777Z,18.80
2023-04-11T07:10:51.597Z,12.40
2023-04-11T07:11:51.582Z,15.70
2023-04-11T07:12:51.569Z,17.50
2023-04-11T07:13:51.618Z,13.30
2023-04-11T07:14:51.565Z,6.70
2023-04-11T07:15:51.616Z,4.90
2023-04-11T07:16:51.557Z,4.10
2023-04-11T07:17:52.904Z,5.30
2023-04-11T07:18:52.575Z,4.90
2023-04-11T07:19:51.592Z,6.70
2023-04-11T07:20:51.525Z,8.20
2023-04-11T07:21:51.532Z,4.10
2023-04-11T07:22:51.513Z,3.40
2023-04-11T07:23:51.510Z,4.60
2023-04-11T07:24:51.552Z,8.20
2023-04-11T07:25:51.492Z,5.20
2023-04-11T07:26:51.498Z,4.50
2023-04-11T07:27:51.507Z,2.70
2023-04-11T07:28:51.471Z,4.20
2023-04-11T07:29:51.511Z,8.00
2023-04-11T07:30:51.481Z,4.90
2023-04-11T07:31:51.537Z,4.00
2023-04-11T07:32:52.512Z,4.10
2023-04-11T07:33:51.477Z,3.00
2023-04-11T07:34:51.438Z,2.80
2023-04-11T07:35:51.494Z,5.20
2023-04-11T07:36:51.446Z,2.50
2023-04-11T07:37:51.485Z,4.40
2023-04-11T07:38:51.438Z,2.60
2023-04-11T07:39:51.434Z,2.80
2023-04-11T07:40:51.477Z,2.40
2023-04-11T07:41:51.412Z,3.60
2023-04-11T07:42:51.403Z,3.70
2023-04-11T07:43:51.394Z,3.80
2023-04-11T07:44:51.389Z,3.90
2023-04-11T07:45:51.473Z,5.70
2023-04-11T07:46:51.425Z,4.20
2023-04-11T07:47:51.494Z,8.60
2023-04-11T07:48:51.356Z,3.40
2023-04-11T07:49:51.419Z,3.40
2023-04-11T07:50:51.352Z,4.10
2023-04-11T07:51:51.365Z,6.00
2023-04-11T07:52:51.349Z,5.80
2023-04-11T07:53:51.344Z,3.70
2023-04-11T07:54:51.431Z,3.80
2023-04-11T07:55:51.325Z,3.30
2023-04-11T07:56:51.331Z,2.30
2023-04-11T07:57:51.344Z,2.10
2023-04-11T07:58:51.327Z,3.20
2023-04-11T07:59:51.306Z,2.00
2023-04-11T08:00:51.329Z,2.10
2023-04-11T08:01:51.366Z,2.50
2023-04-11T08:02:51.456Z,4.10
2023-04-11T08:03:51.467Z,3.20
2023-04-11T08:04:51.434Z,2.00
2023-04-11T08:05:51.253Z,1.90
2023-04-11T08:06:51.270Z,2.60
2023-04-11T08:07:51.278Z,2.00
2023-04-11T08:08:51.261Z,2.20
2023-04-11T08:09:51.234Z,1.60
2023-04-11T08:10:52.318Z,5.40
2023-04-11T08:11:52.269Z,2.00
2023-04-11T08:12:51.211Z,5.40
2023-04-11T08:13:51.223Z,2.40
2023-04-11T08:14:51.232Z,5.00
2023-04-11T08:15:51.199Z,2.00
2023-04-11T08:16:52.959Z,4.60
2023-04-11T08:17:52.201Z,3.60
2023-04-11T08:18:51.179Z,3.60
2023-04-11T08:19:51.219Z,2.30
2023-04-11T08:20:51.169Z,4.30
2023-04-11T08:21:51.156Z,2.80
2023-04-11T08:22:51.179Z,3.80
2023-04-11T08:23:51.162Z,4.00
2023-04-11T08:24:51.172Z,3.90
2023-04-11T08:25:51.149Z,4.10
2023-04-11T08:26:51.165Z,5.40
2023-04-11T08:27:51.156Z,7.60
2023-04-11T08:28:51.168Z,3.70
2023-04-11T08:29:51.181Z,2.80
2023-04-11T08:30:51.111Z,1.70
2023-04-11T08:31:51.086Z,2.60
2023-04-11T08:32:51.108Z,3.10
2023-04-11T08:33:51.086Z,1.30
2023-04-11T08:34:51.116Z,1.50
2023-04-11T08:35:51.102Z,1.60
2023-04-11T08:36:51.213Z,3.00
2023-04-11T08:37:51.050Z,1.50
2023-04-11T08:38:51.073Z,3.10
2023-04-11T08:39:51.073Z,2.00
2023-04-11T08:40:51.078Z,1.50
2023-04-11T08:41:51.018Z,1.50
2023-04-11T08:42:51.029Z,1.50
2023-04-11T08:43:51.020Z,1.60
2023-04-11T08:44:51.016Z,4.60
2023-04-11T08:45:51.076Z,1.50
2023-04-11T08:46:51.020Z,2.90
2023-04-11T08:47:51.025Z,1.70
2023-04-11T08:48:50.997Z,2.00
2023-04-11T08:49:50.960Z,6.50
2023-04-11T08:50:51.008Z,2.10
2023-04-11T08:51:50.947Z,1.40
2023-04-11T08:52:50.964Z,1.50
2023-04-11T08:53:50.994Z,4.10
2023-04-11T08:54:51.029Z,2.80
2023-04-11T08:55:51.019Z,3.00
2023-04-11T08:56:50.976Z,3.80
2023-04-11T08:57:50.933Z,1.40
2023-04-11T08:58:50.926Z,2.00
2023-04-11T08:59:50.904Z,3.10
2023-04-11T09:00:50.933Z,2.40
2023-04-11T09:01:51.054Z,1.80
2023-04-11T09:02:50.945Z,2.50
2023-04-11T09:03:50.978Z,1.90
2023-04-11T09:04:50.906Z,5.90
2023-04-11T09:05:50.921Z,2.10
2023-04-11T09:06:50.907Z,4.30
2023-04-11T09:07:50.905Z,3.20
2023-04-11T09:08:50.892Z,3.40
2023-04-11T09:09:51.037Z,2.20
2023-04-11T09:10:50.843Z,2.90
2023-04-11T09:11:50.840Z,2.80
2023-04-11T09:12:50.843Z,2.50
2023-04-11T09:13:50.807Z,2.50
2023-04-11T09:14:50.819Z,2.80
2023-04-11T09:15:50.879Z,6.30
2023-04-11T09:16:50.784Z,4.50
2023-04-11T09:17:50.938Z,5.40
2023-04-11T09:18:50.862Z,4.30
2023-04-11T09:19:50.869Z,7.20
2023-04-11T09:20:50.743Z,3.00
2023-04-11T09:21:50.755Z,4.30
2023-04-11T09:22:50.750Z,4.70
2023-04-11T09:23:50.760Z,2.70
2023-04-11T09:24:50.741Z,2.90
2023-04-11T09:25:50.732Z,3.20
2023-04-11T09:26:50.738Z,5.60
2023-04-11T09:27:50.691Z,4.50
2023-04-11T09:28:50.828Z,5.60
2023-04-11T09:29:50.691Z,5.90
2023-04-11T09:30:50.668Z,4.80
2023-04-11T09:31:50.663Z,3.30
2023-04-11T09:32:50.731Z,3.80
2023-04-11T09:33:50.681Z,5.40
2023-04-11T09:34:50.636Z,3.50
2023-04-11T09:35:50.635Z,4.40
2023-04-11T09:36:50.614Z,5.20
2023-04-11T09:37:50.618Z,8.70
2023-04-11T09:38:50.648Z,6.70
2023-04-11T09:39:50.647Z,8.00
2023-04-11T09:40:50.686Z,5.20
2023-04-11T09:41:50.571Z,4.60
2023-04-11T09:42:50.573Z,7.50
2023-04-11T09:43:50.573Z,6.20
2023-04-11T09:44:50.607Z,5.50
2023-04-11T09:45:54.483Z,10.60
2023-04-11T09:46:51.907Z,5.70
2023-04-11T09:47:51.600Z,7.60
2023-04-11T09:48:50.567Z,10.40
2023-04-11T09:49:50.536Z,7.20
2023-04-11T09:50:50.567Z,8.10
2023-04-11T09:51:50.534Z,5.80
2023-04-11T09:52:50.502Z,13.30
2023-04-11T09:53:50.486Z,5.20
2023-04-11T09:54:50.481Z,4.10
2023-04-11T09:55:50.477Z,9.50
2023-04-11T09:56:50.509Z,5.50
2023-04-11T09:57:50.458Z,5.60
2023-04-11T09:58:50.466Z,4.90
2023-04-11T09:59:50.479Z,13.50
2023-04-11T10:00:50.430Z,7.10
2023-04-11T10:01:50.504Z,6.20
2023-04-11T10:02:50.559Z,9.30
2023-04-11T10:03:50.474Z,4.70
2023-04-11T10:04:50.397Z,6.10
2023-04-11T10:05:50.627Z,5.30
2023-04-11T10:06:50.443Z,4.90
2023-04-11T10:07:50.363Z,9.50
2023-04-11T10:08:50.369Z,4.70
2023-04-11T10:09:50.370Z,9.00
2023-04-11T10:10:50.414Z,7.40
2023-04-11T10:11:50.398Z,8.80
2023-04-11T10:12:50.345Z,5.30
2023-04-11T10:13:50.310Z,2.90
2023-04-11T10:14:50.330Z,7.90
2023-04-11T10:15:50.335Z,5.10
2023-04-11T10:16:50.432Z,6.00
2023-04-11T10:17:50.363Z,9.70
2023-04-11T10:18:50.291Z,7.00
2023-04-11T10:19:50.272Z,4.10
2023-04-11T10:20:50.374Z,4.80
2023-04-11T10:21:51.307Z,4.60
2023-04-11T10:22:50.325Z,4.80
2023-04-11T10:23:50.259Z,2.80
2023-04-11T10:24:50.245Z,4.50
2023-04-11T10:25:50.260Z,6.40
2023-04-11T10:26:50.208Z,4.90
2023-04-11T10:27:50.242Z,7.50
2023-04-11T10:28:50.249Z,5.30
2023-04-11T10:29:51.745Z,4.60
2023-04-11T10:30:51.208Z,3.50
2023-04-11T10:31:50.230Z,6.50
2023-04-11T10:32:50.199Z,8.00
2023-04-11T10:33:50.208Z,4.40
2023-04-11T10:34:50.208Z,7.50
2023-04-11T10:35:50.198Z,4.40
2023-04-11T10:36:50.169Z,4.10
2023-04-11T10:37:50.125Z,6.40
2023-04-11T10:38:50.147Z,7.70
2023-04-11T10:39:50.184Z,5.10
2023-04-11T10:40:50.160Z,6.20
2023-04-11T10:41:50.106Z,3.10
2023-04-11T10:42:50.112Z,3.20
2023-04-11T10:43:50.116Z,4.00
2023-04-11T10:44:50.086Z,4.10
2023-04-11T10:45:50.124Z,2.20
2023-04-11T10:46:50.112Z,4.00
2023-04-11T10:47:50.196Z,5.60
2023-04-11T10:48:50.054Z,5.80
2023-04-11T10:49:50.061Z,3.20
2023-04-11T10:50:50.126Z,5.40
2023-04-11T10:51:49.974Z,10.60
2023-04-11T10:52:50.447Z,7.00
2023-04-11T10:53:49.965Z,2.50
2023-04-11T10:54:49.968Z,5.70
2023-04-11T10:55:49.982Z,6.40
2023-04-11T10:56:49.953Z,3.00
2023-04-11T10:57:49.947Z,3.90
2023-04-11T10:58:49.947Z,6.00
2023-04-11T10:59:49.971Z,6.10
2023-04-11T11:00:49.965Z,6.40
2023-04-11T11:01:52.609Z,3.20
2023-04-11T11:02:51.062Z,6.90
2023-04-11T11:03:50.030Z,2.80
2023-04-11T11:04:50.079Z,1.90
2023-04-11T11:05:49.888Z,5.80
2023-04-11T11:06:56.767Z,4.60
2023-04-11T11:07:51.949Z,2.80
2023-04-11T11:08:49.856Z,5.50
2023-04-11T11:09:49.859Z,6.30
2023-04-11T11:10:49.826Z,3.50
2023-04-11T11:11:49.866Z,2.60
2023-04-11T11:12:49.835Z,3.00
2023-04-11T11:13:49.804Z,8.60
2023-04-11T11:14:49.809Z,2.40
2023-04-11T11:15:49.804Z,2.60
2023-04-11T11:16:49.857Z,2.20
2023-04-11T11:17:49.861Z,3.20
2023-04-11T11:18:49.774Z,2.80
2023-04-11T11:19:49.777Z,2.30
2023-04-11T11:20:49.753Z,6.20
2023-04-11T11:21:49.765Z,2.30
2023-04-11T11:22:49.790Z,2.00
2023-04-11T11:23:49.736Z,5.20
2023-04-11T11:24:49.715Z,3.70
2023-04-11T11:25:49.739Z,2.80
2023-04-11T11:26:49.731Z,4.70
2023-04-11T11:27:49.711Z,5.70
2023-04-11T11:28:49.732Z,2.20
2023-04-11T11:29:49.724Z,3.80
2023-04-11T11:30:49.699Z,4.10
2023-04-11T11:31:49.681Z,4.30
2023-04-11T11:32:49.962Z,2.50
2023-04-11T11:33:49.637Z,3.80
2023-04-11T11:34:49.688Z,6.00
2023-04-11T11:35:49.639Z,3.60
2023-04-11T11:36:49.688Z,2.50
2023-04-11T11:37:49.622Z,3.70
2023-04-11T11:38:49.612Z,4.50
2023-04-11T11:39:49.640Z,3.90
2023-04-11T11:40:49.577Z,2.70
2023-04-11T11:41:49.579Z,3.70
2023-04-11T11:42:49.583Z,3.70
2023-04-11T11:43:49.573Z,2.40
2023-04-11T11:44:49.601Z,1.90
2023-04-11T11:45:49.570Z,6.00
2023-04-11T11:46:49.579Z,4.00
2023-04-11T11:47:49.584Z,3.40
2023-04-11T11:48:49.537Z,3.70
2023-04-11T11:49:49.564Z,3.80
2023-04-11T11:50:49.520Z,3.20
2023-04-11T11:51:49.530Z,6.10
2023-04-11T11:52:49.506Z,9.90
2023-04-11T11:53:49.532Z,3.00
2023-04-11T11:54:49.519Z,10.20
2023-04-11T11:55:49.485Z,3.00
2023-04-11T11:56:49.482Z,2.90
2023-04-11T11:57:49.465Z,3.40
2023-04-11T11:58:49.447Z,2.40
2023-04-11T11:59:49.547Z,3.40
2023-04-11T12:00:49.481Z,3.00
2023-04-11T12:01:49.488Z,4.40
2023-04-11T12:02:49.535Z,2.70
2023-04-11T12:03:49.619Z,4.90
2023-04-11T12:04:49.581Z,2.70
2023-04-11T12:05:49.454Z,16.00
2023-04-11T12:06:49.393Z,3.70
2023-04-11T12:07:49.446Z,4.40
2023-04-11T12:08:49.393Z,3.40
2023-04-11T12:09:49.375Z,5.90
2023-04-11T12:10:49.419Z,1.70
2023-04-11T12:11:49.355Z,3.40
2023-04-11T12:12:53.982Z,4.20
2023-04-11T12:13:50.383Z,2.50
2023-04-11T12:14:49.351Z,7.40
2023-04-11T12:15:49.420Z,2.20
2023-04-11T12:16:49.340Z,5.70
2023-04-11T12:17:49.382Z,4.30
2023-04-11T12:18:49.337Z,4.10
2023-04-11T12:19:49.366Z,6.00
2023-04-11T12:20:49.476Z,2.20
2023-04-11T12:21:49.307Z,3.40
2023-04-11T12:22:49.333Z,2.50
2023-04-11T12:23:49.268Z,2.60
2023-04-11T12:24:49.453Z,3.00
2023-04-11T12:25:49.311Z,2.60
2023-04-11T12:27:05.793Z,4.30
2023-04-11T12:27:51.312Z,2.80
2023-04-11T12:28:49.253Z,3.10
2023-04-11T12:29:49.244Z,6.50
2023-04-11T12:30:50.200Z,2.80
2023-04-11T12:31:49.316Z,2.20
2023-04-11T12:32:49.258Z,6.40
2023-04-11T12:33:49.222Z,2.60
2023-04-11T12:34:49.207Z,1.90
2023-04-11T12:35:49.185Z,2.10
2023-04-11T12:36:49.198Z,3.10
2023-04-11T12:37:49.211Z,2.90
2023-04-11T12:38:49.162Z,4.10
2023-04-11T12:39:49.163Z,2.40
2023-04-11T12:40:49.311Z,1.70
2023-04-11T12:41:49.152Z,2.80
2023-04-11T12:42:56.706Z,6.20
2023-04-11T12:43:51.146Z,2.40
2023-04-11T12:44:49.159Z,1.70
2023-04-11T12:45:49.127Z,2.80
2023-04-11T12:46:49.184Z,2.30
2023-04-11T12:47:49.216Z,1.90
2023-04-11T12:48:49.120Z,8.30
2023-04-11T12:49:49.111Z,4.20
2023-04-11T12:50:50.095Z,3.60
2023-04-11T12:51:49.169Z,3.10
2023-04-11T12:52:49.050Z,4.00
2023-04-11T12:53:49.095Z,7.50
2023-04-11T12:54:49.209Z,2.80
2023-04-11T12:55:49.086Z,2.10
2023-04-11T12:56:49.036Z,3.40
2023-04-11T12:57:49.038Z,4.00
2023-04-11T12:58:49.054Z,2.60
2023-04-11T12:59:49.055Z,3.10
2023-04-11T13:00:49.704Z,3.40
2023-04-11T13:01:49.186Z,3.30
2023-04-11T13:02:49.340Z,2.20
2023-04-11T13:03:49.157Z,2.90
2023-04-11T13:04:49.086Z,2.70
2023-04-11T13:05:49.063Z,2.50
2023-04-11T13:06:49.020Z,7.50
2023-04-11T13:07:49.007Z,3.10
2023-04-11T13:08:48.951Z,3.00
2023-04-11T13:09:48.970Z,2.20
2023-04-11T13:10:48.946Z,3.80
2023-04-11T13:11:48.931Z,5.20
2023-04-11T13:12:48.912Z,3.70
2023-04-11T13:13:48.964Z,4.40
2023-04-11T13:14:48.902Z,5.30
2023-04-11T13:15:48.980Z,2.50
2023-04-11T13:16:48.947Z,9.50
2023-04-11T13:17:48.891Z,7.20